Terminal Aerodrome Forecast
Issued by NWS

Home | Current Version | Previous Version | Graphics & Text | Print | Product List | Glossary On
Versions: 1 2 3 4 5 6 7 8 9 10 11 12 13 14 15 16 17 18 19 20 21 22
313
FTUS43 KGRB 060050 AAA
TAFAUW
TAF AMD
KAUW 060050Z 0601/0624 13008KT P6SM OVC008
      TEMPO 0601/0603 SCT008 BKN100
     FM060500 15009KT 4SM BR OVC004 WS015/19035KT
     FM061100 17009KT 4SM BR OVC004
     FM061600 21010G17KT P6SM OVC008
     FM062000 25013G22KT P6SM -SHSN BKN015
     FM062200 25014G24KT P6SM -SHSN BKN025=

USA.gov is the U.S. government's official web portal to all federal, state and local government web resources and services.